Main page
METAR-TAF:

METAR-TAF

Airports :

Tiruchirappalli International Airport

Tiruchirapalli, India

latitude: 10-46N, longitude: 078-43E, elevation: 85 m

Current weather observation

The report was made 33 minutes ago, at 15:00 UTC
Wind 9 kt from the West
Temperature 31°C
Humidity 55%
Pressure 1006 hPa
Visibility: 6000 m
Few clouds at a height of 1600 ft
Scattered clouds at a height of 10000 ft

METAR: VOTR 231500Z 27009KT 6000 FEW016 SCT100 31/21 Q1006 NOSIG

Time: 21:03 (15:33 UTC)

Forecast

The report was made 4 hours and 33 minutes ago, at 11:00 UTC
Forecast valid from 23 at 12 UTC to 24 at 18 UTC
Wind 10 kt from the West with gusts up to 25 kt
Visibility: 6000 m
Scattered clouds at a height of 1600 ft
Scattered clouds at a height of 10000 ft

TAF: VOTR 231100Z 2312/2418 28010G25KT 6000 SCT016 SCT100

Weather observations and forecasts of more than 4000 airports (METAR and TAF reports).

The available stations are represented by yellow and red dots on the map.

Hover mouse over dot to see the name of the station.

Then click to see weather observations and forecasts.

To change the map : click on the green buttons with a black cross to zoom in, on the green button with a dash to zoom out, or on the green arrows for adjacent maps.


METAR-TAF: